sensor_id;sensor_type;location;lat;lon;timestamp;temperature;humidity
5134;DHT22;2585;48.696;10.066;2023-04-15T00:01:03;2.40;84.40
5134;DHT22;2585;48.696;10.066;2023-04-15T00:03:31;2.40;84.70
5134;DHT22;2585;48.696;10.066;2023-04-15T00:06:00;2.30;85.60
5134;DHT22;2585;48.696;10.066;2023-04-15T00:08:28;2.30;86.60
5134;DHT22;2585;48.696;10.066;2023-04-15T00:10:55;2.30;87.30
5134;DHT22;2585;48.696;10.066;2023-04-15T00:13:22;2.30;87.50
5134;DHT22;2585;48.696;10.066;2023-04-15T00:15:49;2.30;87.50
5134;DHT22;2585;48.696;10.066;2023-04-15T00:18:15;2.20;87.70
5134;DHT22;2585;48.696;10.066;2023-04-15T00:20:42;2.20;88.30
5134;DHT22;2585;48.696;10.066;2023-04-15T00:23:09;2.10;88.90
5134;DHT22;2585;48.696;10.066;2023-04-15T00:25:36;2.10;89.60
5134;DHT22;2585;48.696;10.066;2023-04-15T00:28:02;2.00;89.90
5134;DHT22;2585;48.696;10.066;2023-04-15T00:30:29;2.00;90.00
5134;DHT22;2585;48.696;10.066;2023-04-15T00:32:57;1.90;89.70
5134;DHT22;2585;48.696;10.066;2023-04-15T00:35:24;1.90;89.60
5134;DHT22;2585;48.696;10.066;2023-04-15T00:37:50;1.90;90.00
5134;DHT22;2585;48.696;10.066;2023-04-15T00:40:18;1.90;90.20
5134;DHT22;2585;48.696;10.066;2023-04-15T00:42:46;2.00;90.70
5134;DHT22;2585;48.696;10.066;2023-04-15T00:45:13;1.90;90.90
5134;DHT22;2585;48.696;10.066;2023-04-15T00:47:42;1.90;91.10
5134;DHT22;2585;48.696;10.066;2023-04-15T00:50:10;1.80;90.90
5134;DHT22;2585;48.696;10.066;2023-04-15T00:52:39;1.80;90.90
5134;DHT22;2585;48.696;10.066;2023-04-15T00:55:07;1.70;90.80
5134;DHT22;2585;48.696;10.066;2023-04-15T00:57:35;1.70;91.00
5134;DHT22;2585;48.696;10.066;2023-04-15T01:00:02;1.70;90.90
5134;DHT22;2585;48.696;10.066;2023-04-15T01:02:31;1.60;91.00
5134;DHT22;2585;48.696;10.066;2023-04-15T01:04:59;1.60;91.10
5134;DHT22;2585;48.696;10.066;2023-04-15T01:07:26;1.60;91.10
5134;DHT22;2585;48.696;10.066;2023-04-15T01:09:53;1.50;91.30
5134;DHT22;2585;48.696;10.066;2023-04-15T01:12:20;1.40;91.50
5134;DHT22;2585;48.696;10.066;2023-04-15T01:14:47;1.40;91.70
5134;DHT22;2585;48.696;10.066;2023-04-15T01:17:13;1.30;91.80
5134;DHT22;2585;48.696;10.066;2023-04-15T01:19:40;1.30;91.90
5134;DHT22;2585;48.696;10.066;2023-04-15T01:22:07;1.30;91.90
5134;DHT22;2585;48.696;10.066;2023-04-15T01:24:35;1.20;92.00
5134;DHT22;2585;48.696;10.066;2023-04-15T01:27:05;1.20;92.10
5134;DHT22;2585;48.696;10.066;2023-04-15T01:29:36;1.20;92.20
5134;DHT22;2585;48.696;10.066;2023-04-15T01:32:03;1.10;92.20
5134;DHT22;2585;48.696;10.066;2023-04-15T01:34:31;1.10;92.20
5134;DHT22;2585;48.696;10.066;2023-04-15T01:37:01;1.10;92.10
5134;DHT22;2585;48.696;10.066;2023-04-15T01:39:27;1.10;92.10
5134;DHT22;2585;48.696;10.066;2023-04-15T01:41:54;1.10;92.20
5134;DHT22;2585;48.696;10.066;2023-04-15T01:44:21;1.10;92.30
5134;DHT22;2585;48.696;10.066;2023-04-15T01:46:48;1.10;92.40
5134;DHT22;2585;48.696;10.066;2023-04-15T01:49:15;1.10;92.60
5134;DHT22;2585;48.696;10.066;2023-04-15T01:51:42;1.00;92.60
5134;DHT22;2585;48.696;10.066;2023-04-15T01:54:09;1.00;92.80
5134;DHT22;2585;48.696;10.066;2023-04-15T01:56:36;1.00;92.80
5134;DHT22;2585;48.696;10.066;2023-04-15T01:59:02;1.00;92.90
5134;DHT22;2585;48.696;10.066;2023-04-15T02:01:29;1.00;92.90
5134;DHT22;2585;48.696;10.066;2023-04-15T02:03:56;1.00;92.80
5134;DHT22;2585;48.696;10.066;2023-04-15T02:06:23;0.90;92.80
5134;DHT22;2585;48.696;10.066;2023-04-15T02:08:50;0.90;92.90
5134;DHT22;2585;48.696;10.066;2023-04-15T02:11:17;1.00;93.00
5134;DHT22;2585;48.696;10.066;2023-04-15T02:13:45;0.90;93.00
5134;DHT22;2585;48.696;10.066;2023-04-15T02:16:16;1.00;93.10
5134;DHT22;2585;48.696;10.066;2023-04-15T02:18:46;1.00;93.10
5134;DHT22;2585;48.696;10.066;2023-04-15T02:21:13;1.00;93.20
5134;DHT22;2585;48.696;10.066;2023-04-15T02:23:40;1.00;93.20
5134;DHT22;2585;48.696;10.066;2023-04-15T02:26:07;1.00;93.20
5134;DHT22;2585;48.696;10.066;2023-04-15T02:28:33;1.00;93.30
5134;DHT22;2585;48.696;10.066;2023-04-15T02:31:04;1.00;93.30
5134;DHT22;2585;48.696;10.066;2023-04-15T02:33:32;1.00;93.40
5134;DHT22;2585;48.696;10.066;2023-04-15T02:35:58;1.00;93.40
5134;DHT22;2585;48.696;10.066;2023-04-15T02:38:25;1.10;93.40
5134;DHT22;2585;48.696;10.066;2023-04-15T02:40:52;1.10;93.50
5134;DHT22;2585;48.696;10.066;2023-04-15T02:43:19;1.10;93.50
5134;DHT22;2585;48.696;10.066;2023-04-15T02:45:46;1.10;93.50
5134;DHT22;2585;48.696;10.066;2023-04-15T02:48:13;1.10;93.40
5134;DHT22;2585;48.696;10.066;2023-04-15T02:50:44;1.10;93.40
5134;DHT22;2585;48.696;10.066;2023-04-15T02:53:11;1.20;93.50
5134;DHT22;2585;48.696;10.066;2023-04-15T02:55:39;1.20;93.50
5134;DHT22;2585;48.696;10.066;2023-04-15T02:58:06;1.20;93.50
5134;DHT22;2585;48.696;10.066;2023-04-15T03:00:33;1.20;93.60
5134;DHT22;2585;48.696;10.066;2023-04-15T03:03:04;1.20;93.60
5134;DHT22;2585;48.696;10.066;2023-04-15T03:05:32;1.20;93.60
5134;DHT22;2585;48.696;10.066;2023-04-15T03:07:59;1.10;93.60
5134;DHT22;2585;48.696;10.066;2023-04-15T03:10:26;1.10;93.60
5134;DHT22;2585;48.696;10.066;2023-04-15T03:12:54;1.20;93.60
5134;DHT22;2585;48.696;10.066;2023-04-15T03:15:21;1.10;93.60
5134;DHT22;2585;48.696;10.066;2023-04-15T03:17:48;1.20;93.60
5134;DHT22;2585;48.696;10.066;2023-04-15T03:20:15;1.20;93.70
5134;DHT22;2585;48.696;10.066;2023-04-15T03:22:42;1.20;93.70
5134;DHT22;2585;48.696;10.066;2023-04-15T03:25:09;1.30;93.70
5134;DHT22;2585;48.696;10.066;2023-04-15T03:27:37;1.30;93.70
5134;DHT22;2585;48.696;10.066;2023-04-15T03:30:04;1.40;93.70
5134;DHT22;2585;48.696;10.066;2023-04-15T03:32:32;1.30;93.70
5134;DHT22;2585;48.696;10.066;2023-04-15T03:34:59;1.30;93.70
5134;DHT22;2585;48.696;10.066;2023-04-15T03:37:26;1.30;93.70
5134;DHT22;2585;48.696;10.066;2023-04-15T03:39:53;1.20;93.70
5134;DHT22;2585;48.696;10.066;2023-04-15T03:42:19;1.20;93.70
5134;DHT22;2585;48.696;10.066;2023-04-15T03:44:46;1.20;93.70
5134;DHT22;2585;48.696;10.066;2023-04-15T03:47:13;1.20;93.70
5134;DHT22;2585;48.696;10.066;2023-04-15T03:49:40;1.20;93.70
5134;DHT22;2585;48.696;10.066;2023-04-15T03:52:07;1.10;93.70
5134;DHT22;2585;48.696;10.066;2023-04-15T03:54:33;1.10;93.70
5134;DHT22;2585;48.696;10.066;2023-04-15T03:57:00;1.10;93.70
5134;DHT22;2585;48.696;10.066;2023-04-15T03:59:27;1.10;93.70
5134;DHT22;2585;48.696;10.066;2023-04-15T04:01:54;1.10;93.70
5134;DHT22;2585;48.696;10.066;2023-04-15T04:04:21;1.10;93.70
5134;DHT22;2585;48.696;10.066;2023-04-15T04:06:48;1.10;93.70
5134;DHT22;2585;48.696;10.066;2023-04-15T04:09:14;1.10;93.70
5134;DHT22;2585;48.696;10.066;2023-04-15T04:11:41;1.10;93.70
5134;DHT22;2585;48.696;10.066;2023-04-15T04:14:08;1.10;93.70
5134;DHT22;2585;48.696;10.066;2023-04-15T04:16:35;1.10;93.80
5134;DHT22;2585;48.696;10.066;2023-04-15T04:19:02;1.10;93.80
5134;DHT22;2585;48.696;10.066;2023-04-15T04:21:29;1.10;93.80
5134;DHT22;2585;48.696;10.066;2023-04-15T04:23:56;1.10;93.80
5134;DHT22;2585;48.696;10.066;2023-04-15T04:26:24;1.10;93.80
5134;DHT22;2585;48.696;10.066;2023-04-15T04:28:51;1.10;93.80
5134;DHT22;2585;48.696;10.066;2023-04-15T04:31:18;1.10;93.80
5134;DHT22;2585;48.696;10.066;2023-04-15T04:33:45;1.10;93.80
5134;DHT22;2585;48.696;10.066;2023-04-15T04:36:12;1.10;93.80
5134;DHT22;2585;48.696;10.066;2023-04-15T04:38:38;1.10;93.90
5134;DHT22;2585;48.696;10.066;2023-04-15T04:41:05;1.20;93.90
5134;DHT22;2585;48.696;10.066;2023-04-15T04:43:32;1.20;93.90
5134;DHT22;2585;48.696;10.066;2023-04-15T04:45:59;1.20;93.90
5134;DHT22;2585;48.696;10.066;2023-04-15T04:48:26;1.20;93.90
5134;DHT22;2585;48.696;10.066;2023-04-15T04:50:52;1.20;93.90
5134;DHT22;2585;48.696;10.066;2023-04-15T04:53:19;1.30;93.90
5134;DHT22;2585;48.696;10.066;2023-04-15T04:55:46;1.30;93.90
5134;DHT22;2585;48.696;10.066;2023-04-15T04:58:13;1.40;94.00
5134;DHT22;2585;48.696;10.066;2023-04-15T05:00:40;1.40;94.00
5134;DHT22;2585;48.696;10.066;2023-04-15T05:03:07;1.40;94.00
5134;DHT22;2585;48.696;10.066;2023-04-15T05:05:34;1.50;94.00
5134;DHT22;2585;48.696;10.066;2023-04-15T05:08:02;1.50;94.00
5134;DHT22;2585;48.696;10.066;2023-04-15T05:10:29;1.60;94.00
5134;DHT22;2585;48.696;10.066;2023-04-15T05:12:56;1.60;94.00
5134;DHT22;2585;48.696;10.066;2023-04-15T05:15:23;1.70;94.10
5134;DHT22;2585;48.696;10.066;2023-04-15T05:17:50;1.70;94.00
5134;DHT22;2585;48.696;10.066;2023-04-15T05:20:17;1.90;94.10
5134;DHT22;2585;48.696;10.066;2023-04-15T05:22:44;2.00;94.10
5134;DHT22;2585;48.696;10.066;2023-04-15T05:25:11;2.00;94.10
5134;DHT22;2585;48.696;10.066;2023-04-15T05:27:38;2.10;94.10
5134;DHT22;2585;48.696;10.066;2023-04-15T05:30:05;2.20;94.00
5134;DHT22;2585;48.696;10.066;2023-04-15T05:32:32;2.30;94.00
5134;DHT22;2585;48.696;10.066;2023-04-15T05:34:59;2.40;94.00
5134;DHT22;2585;48.696;10.066;2023-04-15T05:37:26;2.40;93.90
5134;DHT22;2585;48.696;10.066;2023-04-15T05:39:53;2.50;93.80
5134;DHT22;2585;48.696;10.066;2023-04-15T05:42:20;2.50;93.60
5134;DHT22;2585;48.696;10.066;2023-04-15T05:44:47;2.50;93.50
5134;DHT22;2585;48.696;10.066;2023-04-15T05:47:13;2.60;93.30
5134;DHT22;2585;48.696;10.066;2023-04-15T05:49:40;2.60;93.20
5134;DHT22;2585;48.696;10.066;2023-04-15T05:52:07;2.70;93.10
5134;DHT22;2585;48.696;10.066;2023-04-15T05:54:34;2.80;93.00
5134;DHT22;2585;48.696;10.066;2023-04-15T05:57:01;2.90;92.90
5134;DHT22;2585;48.696;10.066;2023-04-15T05:59:28;2.90;92.60
5134;DHT22;2585;48.696;10.066;2023-04-15T06:01:55;2.90;92.40
5134;DHT22;2585;48.696;10.066;2023-04-15T06:04:22;2.80;92.40
5134;DHT22;2585;48.696;10.066;2023-04-15T06:06:49;2.90;92.60
5134;DHT22;2585;48.696;10.066;2023-04-15T06:09:15;3.00;92.50
5134;DHT22;2585;48.696;10.066;2023-04-15T06:11:43;2.90;92.20
5134;DHT22;2585;48.696;10.066;2023-04-15T06:14:09;3.00;92.30
5134;DHT22;2585;48.696;10.066;2023-04-15T06:16:36;3.10;92.40
5134;DHT22;2585;48.696;10.066;2023-04-15T06:19:03;3.20;92.50
5134;DHT22;2585;48.696;10.066;2023-04-15T06:21:30;3.30;92.30
5134;DHT22;2585;48.696;10.066;2023-04-15T06:23:58;3.30;92.30
5134;DHT22;2585;48.696;10.066;2023-04-15T06:26:27;3.40;92.00
5134;DHT22;2585;48.696;10.066;2023-04-15T06:28:54;3.50;92.10
5134;DHT22;2585;48.696;10.066;2023-04-15T06:31:21;3.60;92.10
5134;DHT22;2585;48.696;10.066;2023-04-15T06:33:48;3.80;91.90
5134;DHT22;2585;48.696;10.066;2023-04-15T06:36:15;3.80;91.20
5134;DHT22;2585;48.696;10.066;2023-04-15T06:38:42;4.10;90.90
5134;DHT22;2585;48.696;10.066;2023-04-15T06:41:08;4.30;90.20
5134;DHT22;2585;48.696;10.066;2023-04-15T06:43:35;4.40;87.70
5134;DHT22;2585;48.696;10.066;2023-04-15T06:46:02;4.60;82.70
5134;DHT22;2585;48.696;10.066;2023-04-15T06:48:29;4.60;71.30
5134;DHT22;2585;48.696;10.066;2023-04-15T06:50:56;5.00;73.30
5134;DHT22;2585;48.696;10.066;2023-04-15T06:53:24;5.30;68.00
5134;DHT22;2585;48.696;10.066;2023-04-15T06:55:53;5.30;18.80
5134;DHT22;2585;48.696;10.066;2023-04-15T06:58:20;5.30;1.00
5134;DHT22;2585;48.696;10.066;2023-04-15T07:00:47;5.40;1.00
5134;DHT22;2585;48.696;10.066;2023-04-15T07:03:14;5.70;1.00
5134;DHT22;2585;48.696;10.066;2023-04-15T07:05:41;5.90;1.00
5134;DHT22;2585;48.696;10.066;2023-04-15T07:08:08;5.90;1.00
5134;DHT22;2585;48.696;10.066;2023-04-15T07:10:35;5.80;93.30
5134;DHT22;2585;48.696;10.066;2023-04-15T07:13:03;6.00;1.00
5134;DHT22;2585;48.696;10.066;2023-04-15T07:15:30;6.10;1.00
5134;DHT22;2585;48.696;10.066;2023-04-15T07:17:56;6.20;71.40
5134;DHT22;2585;48.696;10.066;2023-04-15T07:20:23;6.30;84.60
5134;DHT22;2585;48.696;10.066;2023-04-15T07:22:51;6.30;65.40
5134;DHT22;2585;48.696;10.066;2023-04-15T07:25:18;6.40;64.10
5134;DHT22;2585;48.696;10.066;2023-04-15T07:27:45;6.50;25.90
5134;DHT22;2585;48.696;10.066;2023-04-15T07:30:13;6.60;1.00
5134;DHT22;2585;48.696;10.066;2023-04-15T07:32:41;6.90;12.10
5134;DHT22;2585;48.696;10.066;2023-04-15T07:35:08;7.20;6.90
5134;DHT22;2585;48.696;10.066;2023-04-15T07:37:35;7.60;25.30
5134;DHT22;2585;48.696;10.066;2023-04-15T07:40:02;8.00;1.00
5134;DHT22;2585;48.696;10.066;2023-04-15T07:42:33;8.50;1.00
5134;DHT22;2585;48.696;10.066;2023-04-15T07:45:00;9.00;1.00
5134;DHT22;2585;48.696;10.066;2023-04-15T07:47:27;9.40;60.20
5134;DHT22;2585;48.696;10.066;2023-04-15T07:49:53;9.50;1.00
5134;DHT22;2585;48.696;10.066;2023-04-15T07:52:20;9.60;66.30
5134;DHT22;2585;48.696;10.066;2023-04-15T07:54:47;9.70;22.90
5134;DHT22;2585;48.696;10.066;2023-04-15T07:57:14;10.00;1.00
5134;DHT22;2585;48.696;10.066;2023-04-15T07:59:42;10.10;1.00
5134;DHT22;2585;48.696;10.066;2023-04-15T08:02:10;10.20;1.00
5134;DHT22;2585;48.696;10.066;2023-04-15T08:04:37;10.30;78.60
5134;DHT22;2585;48.696;10.066;2023-04-15T08:07:05;10.40;74.00
5134;DHT22;2585;48.696;10.066;2023-04-15T08:09:31;10.50;49.70
5134;DHT22;2585;48.696;10.066;2023-04-15T08:11:58;10.50;1.00
5134;DHT22;2585;48.696;10.066;2023-04-15T08:14:25;10.60;1.00
5134;DHT22;2585;48.696;10.066;2023-04-15T08:16:52;10.60;1.00
5134;DHT22;2585;48.696;10.066;2023-04-15T08:19:19;10.70;1.00
5134;DHT22;2585;48.696;10.066;2023-04-15T08:21:46;10.70;1.00
5134;DHT22;2585;48.696;10.066;2023-04-15T08:24:13;10.80;90.60
5134;DHT22;2585;48.696;10.066;2023-04-15T08:26:40;10.80;86.50
5134;DHT22;2585;48.696;10.066;2023-04-15T08:29:07;11.20;89.70
5134;DHT22;2585;48.696;10.066;2023-04-15T08:31:34;11.40;82.50
5134;DHT22;2585;48.696;10.066;2023-04-15T08:34:01;11.30;64.00
5134;DHT22;2585;48.696;10.066;2023-04-15T08:36:29;10.90;33.40
5134;DHT22;2585;48.696;10.066;2023-04-15T08:38:56;11.00;24.40
5134;DHT22;2585;48.696;10.066;2023-04-15T08:41:24;10.80;17.10
5134;DHT22;2585;48.696;10.066;2023-04-15T08:46:20;10.70;1.00
5134;DHT22;2585;48.696;10.066;2023-04-15T08:48:48;10.60;1.00
5134;DHT22;2585;48.696;10.066;2023-04-15T08:51:16;10.50;1.00
5134;DHT22;2585;48.696;10.066;2023-04-15T08:53:44;10.50;1.00
5134;DHT22;2585;48.696;10.066;2023-04-15T08:56:14;10.70;1.00
5134;DHT22;2585;48.696;10.066;2023-04-15T08:58:45;10.80;1.00
5134;DHT22;2585;48.696;10.066;2023-04-15T09:01:12;10.90;1.00
5134;DHT22;2585;48.696;10.066;2023-04-15T09:03:40;10.70;1.00
5134;DHT22;2585;48.696;10.066;2023-04-15T09:06:07;10.90;1.00
5134;DHT22;2585;48.696;10.066;2023-04-15T09:08:35;10.90;1.00
5134;DHT22;2585;48.696;10.066;2023-04-15T09:11:02;11.00;1.00
5134;DHT22;2585;48.696;10.066;2023-04-15T09:13:29;11.10;1.00
5134;DHT22;2585;48.696;10.066;2023-04-15T09:15:56;11.10;1.00
5134;DHT22;2585;48.696;10.066;2023-04-15T09:18:32;10.90;1.00
5134;DHT22;2585;48.696;10.066;2023-04-15T09:21:05;10.70;1.00
5134;DHT22;2585;48.696;10.066;2023-04-15T09:23:35;10.80;1.00
5134;DHT22;2585;48.696;10.066;2023-04-15T09:26:03;10.90;1.00
5134;DHT22;2585;48.696;10.066;2023-04-15T09:28:30;11.00;1.00
5134;DHT22;2585;48.696;10.066;2023-04-15T09:30:58;11.10;91.50
5134;DHT22;2585;48.696;10.066;2023-04-15T09:33:27;11.10;92.30
5134;DHT22;2585;48.696;10.066;2023-04-15T09:38:27;11.30;90.10
5134;DHT22;2585;48.696;10.066;2023-04-15T09:40:54;11.50;86.60
5134;DHT22;2585;48.696;10.066;2023-04-15T09:43:21;11.60;86.50
5134;DHT22;2585;48.696;10.066;2023-04-15T09:45:53;11.70;88.00
5134;DHT22;2585;48.696;10.066;2023-04-15T09:48:24;11.70;83.10
5134;DHT22;2585;48.696;10.066;2023-04-15T09:51:00;11.60;80.90
5134;DHT22;2585;48.696;10.066;2023-04-15T09:53:27;11.40;76.20
5134;DHT22;2585;48.696;10.066;2023-04-15T09:55:58;11.50;74.80
5134;DHT22;2585;48.696;10.066;2023-04-15T09:58:33;11.60;74.70
5134;DHT22;2585;48.696;10.066;2023-04-15T10:01:03;11.60;72.70
5134;DHT22;2585;48.696;10.066;2023-04-15T10:03:32;11.70;74.70
5134;DHT22;2585;48.696;10.066;2023-04-15T10:06:01;11.40;68.20
5134;DHT22;2585;48.696;10.066;2023-04-15T10:08:31;11.30;68.70
5134;DHT22;2585;48.696;10.066;2023-04-15T10:11:00;11.10;66.40
5134;DHT22;2585;48.696;10.066;2023-04-15T10:13:29;11.30;69.00
5134;DHT22;2585;48.696;10.066;2023-04-15T10:16:06;11.10;68.00
5134;DHT22;2585;48.696;10.066;2023-04-15T10:18:41;11.00;69.90
5134;DHT22;2585;48.696;10.066;2023-04-15T10:21:08;11.00;70.10
5134;DHT22;2585;48.696;10.066;2023-04-15T10:23:35;11.00;69.30
5134;DHT22;2585;48.696;10.066;2023-04-15T10:26:03;11.00;70.00
5134;DHT22;2585;48.696;10.066;2023-04-15T10:28:30;10.90;71.70
5134;DHT22;2585;48.696;10.066;2023-04-15T10:30:57;10.90;72.60
5134;DHT22;2585;48.696;10.066;2023-04-15T10:33:26;10.90;70.90
5134;DHT22;2585;48.696;10.066;2023-04-15T10:35:54;10.80;69.40
5134;DHT22;2585;48.696;10.066;2023-04-15T10:38:40;11.00;70.60
5134;DHT22;2585;48.696;10.066;2023-04-15T10:41:22;11.20;77.20
5134;DHT22;2585;48.696;10.066;2023-04-15T10:44:00;11.20;69.60
5134;DHT22;2585;48.696;10.066;2023-04-15T10:46:41;11.30;66.60
5134;DHT22;2585;48.696;10.066;2023-04-15T10:49:16;11.10;63.10
5134;DHT22;2585;48.696;10.066;2023-04-15T10:51:57;11.10;64.80
5134;DHT22;2585;48.696;10.066;2023-04-15T11:00:13;11.00;54.60
5134;DHT22;2585;48.696;10.066;2023-04-15T11:02:52;11.20;63.60
5134;DHT22;2585;48.696;10.066;2023-04-15T11:05:21;11.10;34.30
5134;DHT22;2585;48.696;10.066;2023-04-15T11:07:53;11.00;28.30
5134;DHT22;2585;48.696;10.066;2023-04-15T11:13:19;10.90;22.20
5134;DHT22;2585;48.696;10.066;2023-04-15T11:15:45;10.80;16.70
5134;DHT22;2585;48.696;10.066;2023-04-15T11:18:14;10.90;20.10
5134;DHT22;2585;48.696;10.066;2023-04-15T11:20:48;10.70;16.20
5134;DHT22;2585;48.696;10.066;2023-04-15T11:23:20;10.70;18.00
5134;DHT22;2585;48.696;10.066;2023-04-15T11:25:54;10.70;10.70
5134;DHT22;2585;48.696;10.066;2023-04-15T11:28:27;10.70;12.50
5134;DHT22;2585;48.696;10.066;2023-04-15T11:30:55;10.80;10.70
5134;DHT22;2585;48.696;10.066;2023-04-15T11:33:22;10.80;10.30
5134;DHT22;2585;48.696;10.066;2023-04-15T11:35:51;10.80;1.00
5134;DHT22;2585;48.696;10.066;2023-04-15T11:38:19;10.80;1.00
5134;DHT22;2585;48.696;10.066;2023-04-15T11:40:47;11.00;1.00
5134;DHT22;2585;48.696;10.066;2023-04-15T11:43:18;11.20;1.00
5134;DHT22;2585;48.696;10.066;2023-04-15T11:48:17;11.50;1.00
5134;DHT22;2585;48.696;10.066;2023-04-15T11:50:44;11.20;1.00
5134;DHT22;2585;48.696;10.066;2023-04-15T11:53:12;11.10;1.00
5134;DHT22;2585;48.696;10.066;2023-04-15T11:55:51;11.00;1.00
5134;DHT22;2585;48.696;10.066;2023-04-15T11:58:21;11.00;1.00
5134;DHT22;2585;48.696;10.066;2023-04-15T12:00:54;11.10;1.00
5134;DHT22;2585;48.696;10.066;2023-04-15T12:03:28;11.10;1.00
5134;DHT22;2585;48.696;10.066;2023-04-15T12:16:52;11.40;1.00
5134;DHT22;2585;48.696;10.066;2023-04-15T12:19:26;11.50;1.00
5134;DHT22;2585;48.696;10.066;2023-04-15T12:21:59;11.50;1.00
5134;DHT22;2585;48.696;10.066;2023-04-15T12:24:27;11.70;1.00
5134;DHT22;2585;48.696;10.066;2023-04-15T12:26:55;11.80;1.00
5134;DHT22;2585;48.696;10.066;2023-04-15T12:29:27;11.80;1.00
5134;DHT22;2585;48.696;10.066;2023-04-15T12:32:08;11.90;1.00
5134;DHT22;2585;48.696;10.066;2023-04-15T12:34:40;12.20;1.00
5134;DHT22;2585;48.696;10.066;2023-04-15T12:37:10;12.20;1.00
5134;DHT22;2585;48.696;10.066;2023-04-15T12:39:38;11.80;1.00
5134;DHT22;2585;48.696;10.066;2023-04-15T12:42:07;11.80;1.00
5134;DHT22;2585;48.696;10.066;2023-04-15T12:44:35;11.80;1.00
5134;DHT22;2585;48.696;10.066;2023-04-15T12:47:02;11.60;1.00
5134;DHT22;2585;48.696;10.066;2023-04-15T12:49:30;11.30;1.00
5134;DHT22;2585;48.696;10.066;2023-04-15T12:51:59;11.00;1.00
5134;DHT22;2585;48.696;10.066;2023-04-15T12:54:27;10.80;1.00
5134;DHT22;2585;48.696;10.066;2023-04-15T12:56:54;10.50;1.00
5134;DHT22;2585;48.696;10.066;2023-04-15T12:59:21;10.40;1.00
5134;DHT22;2585;48.696;10.066;2023-04-15T13:01:50;10.50;1.00
5134;DHT22;2585;48.696;10.066;2023-04-15T13:04:19;10.60;1.00
5134;DHT22;2585;48.696;10.066;2023-04-15T13:06:46;10.50;1.00
5134;DHT22;2585;48.696;10.066;2023-04-15T13:09:13;10.40;1.00
5134;DHT22;2585;48.696;10.066;2023-04-15T13:11:40;10.40;1.00
5134;DHT22;2585;48.696;10.066;2023-04-15T13:14:08;10.30;1.00
5134;DHT22;2585;48.696;10.066;2023-04-15T13:16:37;10.30;1.00
5134;DHT22;2585;48.696;10.066;2023-04-15T13:19:04;10.40;1.00
5134;DHT22;2585;48.696;10.066;2023-04-15T13:21:31;10.40;1.00
5134;DHT22;2585;48.696;10.066;2023-04-15T13:24:01;10.50;1.00
5134;DHT22;2585;48.696;10.066;2023-04-15T13:26:29;10.50;1.00
5134;DHT22;2585;48.696;10.066;2023-04-15T13:28:56;10.40;1.00
5134;DHT22;2585;48.696;10.066;2023-04-15T13:31:23;10.40;1.00
5134;DHT22;2585;48.696;10.066;2023-04-15T13:33:50;10.40;1.00
5134;DHT22;2585;48.696;10.066;2023-04-15T13:36:17;10.50;1.00
5134;DHT22;2585;48.696;10.066;2023-04-15T13:38:44;10.30;1.00
5134;DHT22;2585;48.696;10.066;2023-04-15T13:41:11;10.20;1.00
5134;DHT22;2585;48.696;10.066;2023-04-15T13:43:37;10.10;1.00
5134;DHT22;2585;48.696;10.066;2023-04-15T13:46:04;9.70;1.00
5134;DHT22;2585;48.696;10.066;2023-04-15T13:48:31;9.50;1.00
5134;DHT22;2585;48.696;10.066;2023-04-15T13:50:58;9.40;1.00
5134;DHT22;2585;48.696;10.066;2023-04-15T13:53:25;9.30;1.00
5134;DHT22;2585;48.696;10.066;2023-04-15T13:56:04;9.10;1.00
5134;DHT22;2585;48.696;10.066;2023-04-15T13:58:31;8.90;1.00
5134;DHT22;2585;48.696;10.066;2023-04-15T14:00:58;8.80;1.00
5134;DHT22;2585;48.696;10.066;2023-04-15T14:03:25;8.90;1.00
5134;DHT22;2585;48.696;10.066;2023-04-15T14:05:52;8.90;1.00
5134;DHT22;2585;48.696;10.066;2023-04-15T14:08:22;8.90;1.00
5134;DHT22;2585;48.696;10.066;2023-04-15T14:10:49;8.90;1.00
5134;DHT22;2585;48.696;10.066;2023-04-15T14:13:15;8.90;1.00
5134;DHT22;2585;48.696;10.066;2023-04-15T14:15:42;8.90;1.00
5134;DHT22;2585;48.696;10.066;2023-04-15T14:18:09;8.90;1.00
5134;DHT22;2585;48.696;10.066;2023-04-15T14:20:36;8.90;1.00
5134;DHT22;2585;48.696;10.066;2023-04-15T14:23:03;9.00;1.00
5134;DHT22;2585;48.696;10.066;2023-04-15T14:25:30;8.90;1.00
5134;DHT22;2585;48.696;10.066;2023-04-15T14:28:00;8.90;1.00
5134;DHT22;2585;48.696;10.066;2023-04-15T14:30:27;8.90;1.00
5134;DHT22;2585;48.696;10.066;2023-04-15T14:32:54;9.00;1.00
5134;DHT22;2585;48.696;10.066;2023-04-15T14:35:21;9.10;1.00
5134;DHT22;2585;48.696;10.066;2023-04-15T14:37:50;9.20;1.00
5134;DHT22;2585;48.696;10.066;2023-04-15T14:40:16;9.30;1.00
5134;DHT22;2585;48.696;10.066;2023-04-15T14:42:43;9.30;1.00
5134;DHT22;2585;48.696;10.066;2023-04-15T14:45:10;9.30;1.00
5134;DHT22;2585;48.696;10.066;2023-04-15T14:47:37;9.30;1.00
5134;DHT22;2585;48.696;10.066;2023-04-15T14:50:05;9.30;1.00
5134;DHT22;2585;48.696;10.066;2023-04-15T14:52:32;9.30;1.00
5134;DHT22;2585;48.696;10.066;2023-04-15T14:55:08;9.30;1.00
5134;DHT22;2585;48.696;10.066;2023-04-15T14:57:39;9.30;1.00
5134;DHT22;2585;48.696;10.066;2023-04-15T15:00:08;9.20;1.00
5134;DHT22;2585;48.696;10.066;2023-04-15T15:02:36;9.10;1.00
5134;DHT22;2585;48.696;10.066;2023-04-15T15:05:06;9.10;1.00
5134;DHT22;2585;48.696;10.066;2023-04-15T15:07:34;9.10;1.00
5134;DHT22;2585;48.696;10.066;2023-04-15T15:10:03;9.10;1.00
5134;DHT22;2585;48.696;10.066;2023-04-15T15:12:31;8.90;1.00
5134;DHT22;2585;48.696;10.066;2023-04-15T15:14:58;9.00;1.00
5134;DHT22;2585;48.696;10.066;2023-04-15T15:17:27;9.00;1.00
5134;DHT22;2585;48.696;10.066;2023-04-15T15:19:53;9.10;1.00
5134;DHT22;2585;48.696;10.066;2023-04-15T15:22:20;9.00;1.00
5134;DHT22;2585;48.696;10.066;2023-04-15T15:24:47;8.90;1.00
5134;DHT22;2585;48.696;10.066;2023-04-15T15:27:14;8.80;1.00
5134;DHT22;2585;48.696;10.066;2023-04-15T15:29:41;8.80;1.00
5134;DHT22;2585;48.696;10.066;2023-04-15T15:32:07;8.80;1.00
5134;DHT22;2585;48.696;10.066;2023-04-15T15:34:34;8.70;1.00
5134;DHT22;2585;48.696;10.066;2023-04-15T15:37:01;8.70;1.00
5134;DHT22;2585;48.696;10.066;2023-04-15T15:39:28;8.50;1.00
5134;DHT22;2585;48.696;10.066;2023-04-15T15:41:55;8.50;1.00
5134;DHT22;2585;48.696;10.066;2023-04-15T15:44:21;8.40;8.70
5134;DHT22;2585;48.696;10.066;2023-04-15T15:46:49;8.40;26.60
5134;DHT22;2585;48.696;10.066;2023-04-15T15:49:16;8.20;60.80
5134;DHT22;2585;48.696;10.066;2023-04-15T15:51:43;8.10;72.30
5134;DHT22;2585;48.696;10.066;2023-04-15T15:54:11;8.10;1.00
5134;DHT22;2585;48.696;10.066;2023-04-15T15:56:38;7.90;1.00
5134;DHT22;2585;48.696;10.066;2023-04-15T15:59:05;7.90;1.00
5134;DHT22;2585;48.696;10.066;2023-04-15T16:01:32;7.80;62.80
5134;DHT22;2585;48.696;10.066;2023-04-15T16:03:59;7.60;1.00
5134;DHT22;2585;48.696;10.066;2023-04-15T16:06:26;7.40;1.00
5134;DHT22;2585;48.696;10.066;2023-04-15T16:08:53;7.30;1.00
5134;DHT22;2585;48.696;10.066;2023-04-15T16:11:20;7.00;1.00
5134;DHT22;2585;48.696;10.066;2023-04-15T16:13:47;6.90;67.90
5134;DHT22;2585;48.696;10.066;2023-04-15T16:16:14;6.90;4.20
5134;DHT22;2585;48.696;10.066;2023-04-15T16:18:41;6.80;80.30
5134;DHT22;2585;48.696;10.066;2023-04-15T16:21:08;6.80;1.00
5134;DHT22;2585;48.696;10.066;2023-04-15T16:23:35;6.70;1.80
5134;DHT22;2585;48.696;10.066;2023-04-15T16:26:02;6.70;8.20
5134;DHT22;2585;48.696;10.066;2023-04-15T16:28:29;6.60;40.50
5134;DHT22;2585;48.696;10.066;2023-04-15T16:30:56;6.60;75.30
5134;DHT22;2585;48.696;10.066;2023-04-15T16:33:23;6.70;1.00